sensor_id;sensor_type;location;lat;lon;timestamp;temperature;humidity
2851;DHT22;1433;49.976;8.342;2022-09-29T00:02:07;7.50;99.90
2851;DHT22;1433;49.976;8.342;2022-09-29T00:04:33;7.50;99.90
2851;DHT22;1433;49.976;8.342;2022-09-29T00:06:59;7.60;99.90
2851;DHT22;1433;49.976;8.342;2022-09-29T00:09:26;7.60;99.90
2851;DHT22;1433;49.976;8.342;2022-09-29T00:11:53;7.60;99.90
2851;DHT22;1433;49.976;8.342;2022-09-29T00:14:21;7.70;99.90
2851;DHT22;1433;49.976;8.342;2022-09-29T00:16:48;7.70;99.90
2851;DHT22;1433;49.976;8.342;2022-09-29T00:19:16;7.70;99.90
2851;DHT22;1433;49.976;8.342;2022-09-29T00:21:42;7.70;99.90
2851;DHT22;1433;49.976;8.342;2022-09-29T00:24:08;7.70;99.90
2851;DHT22;1433;49.976;8.342;2022-09-29T00:26:35;7.70;99.90
2851;DHT22;1433;49.976;8.342;2022-09-29T00:29:01;7.70;99.90
2851;DHT22;1433;49.976;8.342;2022-09-29T00:31:29;7.70;99.90
2851;DHT22;1433;49.976;8.342;2022-09-29T00:33:58;7.70;99.90
2851;DHT22;1433;49.976;8.342;2022-09-29T00:36:25;7.60;99.90
2851;DHT22;1433;49.976;8.342;2022-09-29T00:38:53;7.60;99.90
2851;DHT22;1433;49.976;8.342;2022-09-29T00:41:28;7.50;99.90
2851;DHT22;1433;49.976;8.342;2022-09-29T00:44:02;7.40;99.90
2851;DHT22;1433;49.976;8.342;2022-09-29T00:46:45;7.40;99.90
2851;DHT22;1433;49.976;8.342;2022-09-29T00:49:28;7.30;99.90
2851;DHT22;1433;49.976;8.342;2022-09-29T00:52:36;7.20;99.90
2851;DHT22;1433;49.976;8.342;2022-09-29T00:55:13;7.20;99.90
2851;DHT22;1433;49.976;8.342;2022-09-29T00:57:44;7.00;99.90
2851;DHT22;1433;49.976;8.342;2022-09-29T01:00:15;6.90;99.90
2851;DHT22;1433;49.976;8.342;2022-09-29T01:02:51;6.90;99.90
2851;DHT22;1433;49.976;8.342;2022-09-29T01:05:29;6.90;99.90
2851;DHT22;1433;49.976;8.342;2022-09-29T01:08:05;6.80;99.90
2851;DHT22;1433;49.976;8.342;2022-09-29T01:10:46;6.80;99.90
2851;DHT22;1433;49.976;8.342;2022-09-29T01:13:13;6.70;99.90
2851;DHT22;1433;49.976;8.342;2022-09-29T01:15:39;6.70;99.90
2851;DHT22;1433;49.976;8.342;2022-09-29T01:18:06;6.60;99.90
2851;DHT22;1433;49.976;8.342;2022-09-29T01:20:37;6.50;99.90
2851;DHT22;1433;49.976;8.342;2022-09-29T01:26:12;6.40;99.90
2851;DHT22;1433;49.976;8.342;2022-09-29T01:43:59;6.20;99.90
2851;DHT22;1433;49.976;8.342;2022-09-29T01:46:34;6.10;99.90
2851;DHT22;1433;49.976;8.342;2022-09-29T01:49:13;6.00;99.90
2851;DHT22;1433;49.976;8.342;2022-09-29T01:54:38;5.90;99.90
2851;DHT22;1433;49.976;8.342;2022-09-29T01:57:33;5.90;99.90
2851;DHT22;1433;49.976;8.342;2022-09-29T02:00:04;5.90;99.90
2851;DHT22;1433;49.976;8.342;2022-09-29T02:02:53;5.90;99.90
2851;DHT22;1433;49.976;8.342;2022-09-29T02:05:41;5.90;99.90
2851;DHT22;1433;49.976;8.342;2022-09-29T02:08:33;5.80;99.90
2851;DHT22;1433;49.976;8.342;2022-09-29T02:11:07;5.80;99.90
2851;DHT22;1433;49.976;8.342;2022-09-29T02:16:22;5.80;99.90
2851;DHT22;1433;49.976;8.342;2022-09-29T02:18:54;5.80;99.90
2851;DHT22;1433;49.976;8.342;2022-09-29T02:21:27;5.80;99.90
2851;DHT22;1433;49.976;8.342;2022-09-29T02:23:54;5.80;99.90
2851;DHT22;1433;49.976;8.342;2022-09-29T02:26:23;5.80;99.90
2851;DHT22;1433;49.976;8.342;2022-09-29T02:28:51;5.80;99.90
2851;DHT22;1433;49.976;8.342;2022-09-29T02:31:18;5.80;99.90
2851;DHT22;1433;49.976;8.342;2022-09-29T02:33:44;5.80;99.90
2851;DHT22;1433;49.976;8.342;2022-09-29T02:45:43;5.90;99.90
2851;DHT22;1433;49.976;8.342;2022-09-29T02:48:35;5.80;99.90
2851;DHT22;1433;49.976;8.342;2022-09-29T02:51:11;5.80;99.90
2851;DHT22;1433;49.976;8.342;2022-09-29T03:00:12;5.70;99.90
2851;DHT22;1433;49.976;8.342;2022-09-29T03:02:41;5.70;99.90
2851;DHT22;1433;49.976;8.342;2022-09-29T03:05:14;5.60;99.90
2851;DHT22;1433;49.976;8.342;2022-09-29T03:07:38;5.60;99.90
2851;DHT22;1433;49.976;8.342;2022-09-29T03:10:06;5.60;99.90
2851;DHT22;1433;49.976;8.342;2022-09-29T03:12:34;5.60;99.90
2851;DHT22;1433;49.976;8.342;2022-09-29T03:15:02;5.70;99.90
2851;DHT22;1433;49.976;8.342;2022-09-29T03:17:28;5.70;99.90
2851;DHT22;1433;49.976;8.342;2022-09-29T03:19:56;5.80;99.90
2851;DHT22;1433;49.976;8.342;2022-09-29T03:22:23;5.80;99.90
2851;DHT22;1433;49.976;8.342;2022-09-29T03:24:49;5.80;99.90
2851;DHT22;1433;49.976;8.342;2022-09-29T03:27:16;5.90;99.90
2851;DHT22;1433;49.976;8.342;2022-09-29T03:29:42;5.90;99.90
2851;DHT22;1433;49.976;8.342;2022-09-29T03:32:09;5.70;99.90
2851;DHT22;1433;49.976;8.342;2022-09-29T03:34:35;5.90;99.90
2851;DHT22;1433;49.976;8.342;2022-09-29T03:37:02;5.90;99.90
2851;DHT22;1433;49.976;8.342;2022-09-29T03:39:28;6.00;99.90
2851;DHT22;1433;49.976;8.342;2022-09-29T03:41:55;6.00;99.90
2851;DHT22;1433;49.976;8.342;2022-09-29T03:44:21;6.10;99.90
2851;DHT22;1433;49.976;8.342;2022-09-29T03:46:47;6.00;99.90
2851;DHT22;1433;49.976;8.342;2022-09-29T03:49:14;5.90;99.90
2851;DHT22;1433;49.976;8.342;2022-09-29T03:51:41;5.90;99.90
2851;DHT22;1433;49.976;8.342;2022-09-29T03:54:08;5.90;99.90
2851;DHT22;1433;49.976;8.342;2022-09-29T03:56:36;5.80;99.90
2851;DHT22;1433;49.976;8.342;2022-09-29T03:59:04;5.80;99.90
2851;DHT22;1433;49.976;8.342;2022-09-29T04:01:33;5.80;99.90
2851;DHT22;1433;49.976;8.342;2022-09-29T04:04:00;5.70;99.90
2851;DHT22;1433;49.976;8.342;2022-09-29T04:06:27;5.70;99.90
2851;DHT22;1433;49.976;8.342;2022-09-29T04:08:54;5.70;99.90
2851;DHT22;1433;49.976;8.342;2022-09-29T04:11:20;5.70;99.90
2851;DHT22;1433;49.976;8.342;2022-09-29T04:13:46;5.70;99.90
2851;DHT22;1433;49.976;8.342;2022-09-29T04:16:13;5.60;99.90
2851;DHT22;1433;49.976;8.342;2022-09-29T04:18:39;5.60;99.90
2851;DHT22;1433;49.976;8.342;2022-09-29T04:21:06;5.60;99.90
2851;DHT22;1433;49.976;8.342;2022-09-29T04:23:34;5.60;99.90
2851;DHT22;1433;49.976;8.342;2022-09-29T04:26:02;5.60;99.90
2851;DHT22;1433;49.976;8.342;2022-09-29T04:28:32;5.70;99.90
2851;DHT22;1433;49.976;8.342;2022-09-29T04:31:00;5.70;99.90
2851;DHT22;1433;49.976;8.342;2022-09-29T04:33:27;5.70;99.90
2851;DHT22;1433;49.976;8.342;2022-09-29T04:35:55;5.60;99.90
2851;DHT22;1433;49.976;8.342;2022-09-29T04:38:22;5.60;99.90
2851;DHT22;1433;49.976;8.342;2022-09-29T04:40:49;5.60;99.90
2851;DHT22;1433;49.976;8.342;2022-09-29T04:43:16;5.60;99.90
2851;DHT22;1433;49.976;8.342;2022-09-29T04:45:42;5.60;99.90
2851;DHT22;1433;49.976;8.342;2022-09-29T04:48:09;5.50;99.90
2851;DHT22;1433;49.976;8.342;2022-09-29T04:50:36;5.60;99.90
2851;DHT22;1433;49.976;8.342;2022-09-29T04:53:03;5.60;99.90
2851;DHT22;1433;49.976;8.342;2022-09-29T04:55:30;5.60;99.90
2851;DHT22;1433;49.976;8.342;2022-09-29T04:57:56;5.50;99.90
2851;DHT22;1433;49.976;8.342;2022-09-29T05:00:22;5.50;99.90
2851;DHT22;1433;49.976;8.342;2022-09-29T05:02:49;5.50;99.90
2851;DHT22;1433;49.976;8.342;2022-09-29T05:05:16;5.40;99.90
2851;DHT22;1433;49.976;8.342;2022-09-29T05:07:42;5.30;99.90
2851;DHT22;1433;49.976;8.342;2022-09-29T05:10:09;5.30;99.90
2851;DHT22;1433;49.976;8.342;2022-09-29T05:12:36;5.30;99.90
2851;DHT22;1433;49.976;8.342;2022-09-29T05:15:03;5.30;99.90
2851;DHT22;1433;49.976;8.342;2022-09-29T05:17:31;5.20;99.90
2851;DHT22;1433;49.976;8.342;2022-09-29T05:19:57;5.20;99.90
2851;DHT22;1433;49.976;8.342;2022-09-29T05:22:23;5.30;99.90
2851;DHT22;1433;49.976;8.342;2022-09-29T05:24:51;5.40;99.90
2851;DHT22;1433;49.976;8.342;2022-09-29T05:27:18;5.40;99.90
2851;DHT22;1433;49.976;8.342;2022-09-29T05:29:45;5.50;99.90
2851;DHT22;1433;49.976;8.342;2022-09-29T05:32:11;5.50;99.90
2851;DHT22;1433;49.976;8.342;2022-09-29T05:34:38;5.60;99.90
2851;DHT22;1433;49.976;8.342;2022-09-29T05:37:04;5.60;99.90
2851;DHT22;1433;49.976;8.342;2022-09-29T05:39:31;5.60;99.90
2851;DHT22;1433;49.976;8.342;2022-09-29T05:42:00;5.60;99.90
2851;DHT22;1433;49.976;8.342;2022-09-29T05:44:27;5.60;99.90
2851;DHT22;1433;49.976;8.342;2022-09-29T05:46:54;5.70;99.90
2851;DHT22;1433;49.976;8.342;2022-09-29T05:49:20;5.70;99.90
2851;DHT22;1433;49.976;8.342;2022-09-29T05:51:48;5.70;99.90
2851;DHT22;1433;49.976;8.342;2022-09-29T05:54:14;5.70;99.90
2851;DHT22;1433;49.976;8.342;2022-09-29T05:56:40;5.80;99.90
2851;DHT22;1433;49.976;8.342;2022-09-29T05:59:08;5.90;99.90
2851;DHT22;1433;49.976;8.342;2022-09-29T06:01:35;6.00;99.90
2851;DHT22;1433;49.976;8.342;2022-09-29T06:04:02;6.10;99.90
2851;DHT22;1433;49.976;8.342;2022-09-29T06:06:28;6.20;99.90
2851;DHT22;1433;49.976;8.342;2022-09-29T06:08:56;6.20;99.90
2851;DHT22;1433;49.976;8.342;2022-09-29T06:11:26;6.30;99.90
2851;DHT22;1433;49.976;8.342;2022-09-29T06:13:54;6.30;99.90
2851;DHT22;1433;49.976;8.342;2022-09-29T06:16:23;6.40;99.90
2851;DHT22;1433;49.976;8.342;2022-09-29T06:18:51;6.50;99.90
2851;DHT22;1433;49.976;8.342;2022-09-29T06:21:20;6.60;99.90
2851;DHT22;1433;49.976;8.342;2022-09-29T06:23:53;6.60;99.90
2851;DHT22;1433;49.976;8.342;2022-09-29T06:26:20;6.60;99.90
2851;DHT22;1433;49.976;8.342;2022-09-29T06:28:48;6.70;99.90
2851;DHT22;1433;49.976;8.342;2022-09-29T06:31:16;6.70;99.90
2851;DHT22;1433;49.976;8.342;2022-09-29T06:33:44;6.80;99.90
2851;DHT22;1433;49.976;8.342;2022-09-29T06:39:19;6.90;99.90
2851;DHT22;1433;49.976;8.342;2022-09-29T06:41:46;7.00;99.90
2851;DHT22;1433;49.976;8.342;2022-09-29T06:44:17;7.20;99.90
2851;DHT22;1433;49.976;8.342;2022-09-29T06:46:44;7.30;99.90
2851;DHT22;1433;49.976;8.342;2022-09-29T06:49:11;7.50;99.90
2851;DHT22;1433;49.976;8.342;2022-09-29T06:51:40;7.60;99.90
2851;DHT22;1433;49.976;8.342;2022-09-29T06:54:13;7.80;99.90
2851;DHT22;1433;49.976;8.342;2022-09-29T06:56:41;7.90;99.90
2851;DHT22;1433;49.976;8.342;2022-09-29T06:59:13;8.00;99.90
2851;DHT22;1433;49.976;8.342;2022-09-29T07:01:40;8.00;99.90
2851;DHT22;1433;49.976;8.342;2022-09-29T07:04:07;8.10;99.90
2851;DHT22;1433;49.976;8.342;2022-09-29T07:06:34;8.20;99.90
2851;DHT22;1433;49.976;8.342;2022-09-29T07:09:00;8.20;99.90
2851;DHT22;1433;49.976;8.342;2022-09-29T07:11:27;8.30;99.90
2851;DHT22;1433;49.976;8.342;2022-09-29T07:13:54;8.40;99.90
2851;DHT22;1433;49.976;8.342;2022-09-29T07:16:21;8.50;99.90
2851;DHT22;1433;49.976;8.342;2022-09-29T07:18:49;8.60;99.90
2851;DHT22;1433;49.976;8.342;2022-09-29T07:21:16;8.70;99.90
2851;DHT22;1433;49.976;8.342;2022-09-29T07:23:44;8.80;99.90
2851;DHT22;1433;49.976;8.342;2022-09-29T07:26:13;8.90;99.90
2851;DHT22;1433;49.976;8.342;2022-09-29T07:28:42;8.80;99.90
2851;DHT22;1433;49.976;8.342;2022-09-29T07:31:11;8.80;99.90
2851;DHT22;1433;49.976;8.342;2022-09-29T07:33:40;8.90;99.90
2851;DHT22;1433;49.976;8.342;2022-09-29T07:36:06;9.00;99.90
2851;DHT22;1433;49.976;8.342;2022-09-29T07:38:33;9.10;99.90
2851;DHT22;1433;49.976;8.342;2022-09-29T07:41:03;9.20;99.90
2851;DHT22;1433;49.976;8.342;2022-09-29T07:43:31;9.30;99.90
2851;DHT22;1433;49.976;8.342;2022-09-29T07:45:58;9.40;99.90
2851;DHT22;1433;49.976;8.342;2022-09-29T07:48:29;9.50;99.90
2851;DHT22;1433;49.976;8.342;2022-09-29T07:51:18;9.60;99.90
2851;DHT22;1433;49.976;8.342;2022-09-29T07:53:43;9.60;99.90
2851;DHT22;1433;49.976;8.342;2022-09-29T07:56:15;9.70;99.90
2851;DHT22;1433;49.976;8.342;2022-09-29T07:58:45;9.70;99.90
2851;DHT22;1433;49.976;8.342;2022-09-29T08:01:13;9.90;99.90
2851;DHT22;1433;49.976;8.342;2022-09-29T08:03:43;10.00;99.90
2851;DHT22;1433;49.976;8.342;2022-09-29T08:06:12;10.00;99.90
2851;DHT22;1433;49.976;8.342;2022-09-29T08:08:39;10.20;99.90
2851;DHT22;1433;49.976;8.342;2022-09-29T08:11:12;10.20;99.90
2851;DHT22;1433;49.976;8.342;2022-09-29T08:13:40;10.10;99.90
2851;DHT22;1433;49.976;8.342;2022-09-29T08:16:12;10.10;99.90
2851;DHT22;1433;49.976;8.342;2022-09-29T08:18:41;10.10;99.90
2851;DHT22;1433;49.976;8.342;2022-09-29T08:21:09;10.20;99.90
2851;DHT22;1433;49.976;8.342;2022-09-29T08:23:38;10.30;99.90
2851;DHT22;1433;49.976;8.342;2022-09-29T08:26:11;10.30;99.90
2851;DHT22;1433;49.976;8.342;2022-09-29T08:28:37;10.40;99.90
2851;DHT22;1433;49.976;8.342;2022-09-29T08:31:06;10.60;99.90
2851;DHT22;1433;49.976;8.342;2022-09-29T08:33:35;10.70;99.90
2851;DHT22;1433;49.976;8.342;2022-09-29T08:36:02;10.80;99.90
2851;DHT22;1433;49.976;8.342;2022-09-29T08:38:31;10.90;99.90
2851;DHT22;1433;49.976;8.342;2022-09-29T08:41:01;10.90;99.90
2851;DHT22;1433;49.976;8.342;2022-09-29T08:43:37;10.90;99.90
2851;DHT22;1433;49.976;8.342;2022-09-29T08:46:20;10.90;99.90
2851;DHT22;1433;49.976;8.342;2022-09-29T08:48:48;11.00;99.90
2851;DHT22;1433;49.976;8.342;2022-09-29T08:56:47;11.10;99.90
2851;DHT22;1433;49.976;8.342;2022-09-29T08:59:13;11.30;99.90
2851;DHT22;1433;49.976;8.342;2022-09-29T09:02:12;11.30;99.90
2851;DHT22;1433;49.976;8.342;2022-09-29T09:07:36;11.60;99.90
2851;DHT22;1433;49.976;8.342;2022-09-29T09:19:20;11.90;99.90
2851;DHT22;1433;49.976;8.342;2022-09-29T09:22:10;12.00;99.90
2851;DHT22;1433;49.976;8.342;2022-09-29T09:25:00;11.90;99.90
2851;DHT22;1433;49.976;8.342;2022-09-29T09:27:38;11.90;99.90
2851;DHT22;1433;49.976;8.342;2022-09-29T09:30:12;12.00;99.90
2851;DHT22;1433;49.976;8.342;2022-09-29T09:32:49;12.10;99.90
2851;DHT22;1433;49.976;8.342;2022-09-29T09:35:42;12.20;99.90
2851;DHT22;1433;49.976;8.342;2022-09-29T09:38:19;12.40;99.90
2851;DHT22;1433;49.976;8.342;2022-09-29T09:40:50;12.50;99.90
2851;DHT22;1433;49.976;8.342;2022-09-29T09:43:28;12.60;99.90
2851;DHT22;1433;49.976;8.342;2022-09-29T09:49:41;13.00;99.90
2851;DHT22;1433;49.976;8.342;2022-09-29T09:55:04;13.20;99.90
2851;DHT22;1433;49.976;8.342;2022-09-29T10:00:32;13.10;99.90
2851;DHT22;1433;49.976;8.342;2022-09-29T10:03:10;12.90;99.90
2851;DHT22;1433;49.976;8.342;2022-09-29T10:05:42;12.90;99.90
2851;DHT22;1433;49.976;8.342;2022-09-29T10:08:25;12.90;99.90
2851;DHT22;1433;49.976;8.342;2022-09-29T10:10:55;13.00;99.90
2851;DHT22;1433;49.976;8.342;2022-09-29T10:13:25;13.20;99.90
2851;DHT22;1433;49.976;8.342;2022-09-29T10:15:56;13.50;99.90
2851;DHT22;1433;49.976;8.342;2022-09-29T10:18:38;13.90;99.90
2851;DHT22;1433;49.976;8.342;2022-09-29T10:21:41;14.00;99.90
2851;DHT22;1433;49.976;8.342;2022-09-29T10:24:23;14.00;99.90
2851;DHT22;1433;49.976;8.342;2022-09-29T10:26:57;14.20;99.90
2851;DHT22;1433;49.976;8.342;2022-09-29T10:29:37;14.60;99.90
2851;DHT22;1433;49.976;8.342;2022-09-29T10:32:30;14.90;99.90
2851;DHT22;1433;49.976;8.342;2022-09-29T10:35:23;15.00;99.90
2851;DHT22;1433;49.976;8.342;2022-09-29T10:38:02;14.90;99.90
2851;DHT22;1433;49.976;8.342;2022-09-29T10:40:34;14.90;99.90
2851;DHT22;1433;49.976;8.342;2022-09-29T10:43:16;14.80;99.90
2851;DHT22;1433;49.976;8.342;2022-09-29T10:45:50;14.90;99.90
2851;DHT22;1433;49.976;8.342;2022-09-29T10:48:18;15.10;99.90
2851;DHT22;1433;49.976;8.342;2022-09-29T10:50:54;15.60;99.90
2851;DHT22;1433;49.976;8.342;2022-09-29T10:53:31;15.80;99.90
2851;DHT22;1433;49.976;8.342;2022-09-29T10:58:44;16.40;99.90
2851;DHT22;1433;49.976;8.342;2022-09-29T11:01:14;16.50;99.90
2851;DHT22;1433;49.976;8.342;2022-09-29T11:06:33;16.70;99.90
2851;DHT22;1433;49.976;8.342;2022-09-29T11:11:53;17.40;99.90
2851;DHT22;1433;49.976;8.342;2022-09-29T11:17:26;17.60;99.90
2851;DHT22;1433;49.976;8.342;2022-09-29T11:19:58;17.70;99.90
2851;DHT22;1433;49.976;8.342;2022-09-29T11:22:51;17.80;99.90
2851;DHT22;1433;49.976;8.342;2022-09-29T11:37:05;17.40;99.90
2851;DHT22;1433;49.976;8.342;2022-09-29T11:45:02;17.20;99.90
2851;DHT22;1433;49.976;8.342;2022-09-29T11:53:34;17.00;99.90
2851;DHT22;1433;49.976;8.342;2022-09-29T11:56:21;17.20;99.90
2851;DHT22;1433;49.976;8.342;2022-09-29T12:01:51;17.30;99.90
2851;DHT22;1433;49.976;8.342;2022-09-29T12:04:47;17.40;99.90
2851;DHT22;1433;49.976;8.342;2022-09-29T12:07:30;17.60;99.90
2851;DHT22;1433;49.976;8.342;2022-09-29T12:10:19;17.70;99.90
2851;DHT22;1433;49.976;8.342;2022-09-29T12:15:58;17.50;99.90
2851;DHT22;1433;49.976;8.342;2022-09-29T12:18:37;17.50;99.90
2851;DHT22;1433;49.976;8.342;2022-09-29T12:21:07;17.40;99.90
2851;DHT22;1433;49.976;8.342;2022-09-29T12:23:36;17.50;99.90
2851;DHT22;1433;49.976;8.342;2022-09-29T12:26:22;17.60;99.90
2851;DHT22;1433;49.976;8.342;2022-09-29T12:29:05;17.30;99.90
2851;DHT22;1433;49.976;8.342;2022-09-29T12:31:37;16.90;99.90
2851;DHT22;1433;49.976;8.342;2022-09-29T12:36:50;16.70;99.90
2851;DHT22;1433;49.976;8.342;2022-09-29T12:42:53;16.50;99.90
2851;DHT22;1433;49.976;8.342;2022-09-29T12:57:01;17.00;99.90
2851;DHT22;1433;49.976;8.342;2022-09-29T12:59:40;17.40;99.90
2851;DHT22;1433;49.976;8.342;2022-09-29T13:02:39;17.40;99.90
2851;DHT22;1433;49.976;8.342;2022-09-29T13:06:06;17.60;99.90
2851;DHT22;1433;49.976;8.342;2022-09-29T13:11:05;17.90;99.90
2851;DHT22;1433;49.976;8.342;2022-09-29T13:13:47;17.80;99.90
2851;DHT22;1433;49.976;8.342;2022-09-29T13:22:35;18.00;99.90
2851;DHT22;1433;49.976;8.342;2022-09-29T13:27:59;18.20;99.90
2851;DHT22;1433;49.976;8.342;2022-09-29T13:30:34;18.30;99.90
2851;DHT22;1433;49.976;8.342;2022-09-29T13:33:09;18.30;99.90
2851;DHT22;1433;49.976;8.342;2022-09-29T13:35:41;18.40;99.90
2851;DHT22;1433;49.976;8.342;2022-09-29T13:38:18;18.60;99.90
2851;DHT22;1433;49.976;8.342;2022-09-29T13:49:29;19.80;99.90
2851;DHT22;1433;49.976;8.342;2022-09-29T13:51:59;20.00;99.90
2851;DHT22;1433;49.976;8.342;2022-09-29T14:02:46;19.50;99.90
2851;DHT22;1433;49.976;8.342;2022-09-29T14:15:42;18.10;99.90
2851;DHT22;1433;49.976;8.342;2022-09-29T14:21:11;18.00;99.90
2851;DHT22;1433;49.976;8.342;2022-09-29T14:23:53;18.00;99.90
2851;DHT22;1433;49.976;8.342;2022-09-29T14:29:17;17.80;99.90
2851;DHT22;1433;49.976;8.342;2022-09-29T14:31:56;17.80;99.90
2851;DHT22;1433;49.976;8.342;2022-09-29T14:34:27;17.90;99.90
2851;DHT22;1433;49.976;8.342;2022-09-29T14:36:56;17.90;99.90
2851;DHT22;1433;49.976;8.342;2022-09-29T14:39:24;17.90;99.90
2851;DHT22;1433;49.976;8.342;2022-09-29T14:41:51;17.90;99.90
2851;DHT22;1433;49.976;8.342;2022-09-29T14:44:22;18.00;99.90
2851;DHT22;1433;49.976;8.342;2022-09-29T14:47:19;17.80;99.90
2851;DHT22;1433;49.976;8.342;2022-09-29T14:50:23;17.80;99.90
2851;DHT22;1433;49.976;8.342;2022-09-29T14:56:31;17.40;99.90
2851;DHT22;1433;49.976;8.342;2022-09-29T14:59:09;17.20;99.90
2851;DHT22;1433;49.976;8.342;2022-09-29T15:04:50;16.60;99.90
2851;DHT22;1433;49.976;8.342;2022-09-29T15:07:19;16.50;99.90
2851;DHT22;1433;49.976;8.342;2022-09-29T15:09:56;16.40;99.90
2851;DHT22;1433;49.976;8.342;2022-09-29T15:12:26;16.40;99.90
2851;DHT22;1433;49.976;8.342;2022-09-29T15:14:54;16.40;99.90
2851;DHT22;1433;49.976;8.342;2022-09-29T15:17:49;16.40;99.90
2851;DHT22;1433;49.976;8.342;2022-09-29T15:20:22;16.50;99.90
2851;DHT22;1433;49.976;8.342;2022-09-29T15:26:01;16.70;99.90
2851;DHT22;1433;49.976;8.342;2022-09-29T15:28:33;16.60;99.90
2851;DHT22;1433;49.976;8.342;2022-09-29T15:31:08;16.50;99.90
2851;DHT22;1433;49.976;8.342;2022-09-29T15:33:39;16.50;99.90
2851;DHT22;1433;49.976;8.342;2022-09-29T15:36:20;16.50;99.90
2851;DHT22;1433;49.976;8.342;2022-09-29T15:38:55;16.50;99.90
2851;DHT22;1433;49.976;8.342;2022-09-29T15:41:33;16.50;99.90
2851;DHT22;1433;49.976;8.342;2022-09-29T15:46:39;16.40;99.90
2851;DHT22;1433;49.976;8.342;2022-09-29T15:49:19;16.40;99.90
2851;DHT22;1433;49.976;8.342;2022-09-29T15:52:04;16.50;99.90
2851;DHT22;1433;49.976;8.342;2022-09-29T15:54:35;16.40;99.90
2851;DHT22;1433;49.976;8.342;2022-09-29T16:03:14;15.90;99.90
2851;DHT22;1433;49.976;8.342;2022-09-29T16:05:55;15.60;99.90
2851;DHT22;1433;49.976;8.342;2022-09-29T16:08:34;15.40;99.90
2851;DHT22;1433;49.976;8.342;2022-09-29T16:11:13;15.20;99.90
2851;DHT22;1433;49.976;8.342;2022-09-29T16:13:50;15.00;99.90
2851;DHT22;1433;49.976;8.342;2022-09-29T16:16:28;14.90;99.90
2851;DHT22;1433;49.976;8.342;2022-09-29T16:21:58;14.60;99.90
2851;DHT22;1433;49.976;8.342;2022-09-29T16:24:29;14.30;99.90
2851;DHT22;1433;49.976;8.342;2022-09-29T16:26:57;14.20;99.90
2851;DHT22;1433;49.976;8.342;2022-09-29T16:35:34;13.80;99.90
2851;DHT22;1433;49.976;8.342;2022-09-29T16:37:56;13.60;99.90
2851;DHT22;1433;49.976;8.342;2022-09-29T16:40:22;13.50;99.90
2851;DHT22;1433;49.976;8.342;2022-09-29T16:42:51;13.30;99.90
2851;DHT22;1433;49.976;8.342;2022-09-29T16:45:18;13.20;99.90
2851;DHT22;1433;49.976;8.342;2022-09-29T16:47:47;13.10;99.90
2851;DHT22;1433;49.976;8.342;2022-09-29T16:50:15;12.90;99.90
2851;DHT22;1433;49.976;8.342;2022-09-29T16:52:46;12.80;99.90
2851;DHT22;1433;49.976;8.342;2022-09-29T17:00:28;12.20;99.90
2851;DHT22;1433;49.976;8.342;2022-09-29T17:02:55;12.10;99.90
2851;DHT22;1433;49.976;8.342;2022-09-29T17:05:27;11.90;99.90
2851;DHT22;1433;49.976;8.342;2022-09-29T17:08:05;11.70;99.90
2851;DHT22;1433;49.976;8.342;2022-09-29T17:10:35;11.60;99.90
2851;DHT22;1433;49.976;8.342;2022-09-29T17:13:06;11.50;99.90
2851;DHT22;1433;49.976;8.342;2022-09-29T17:15:37;11.40;99.90
2851;DHT22;1433;49.976;8.342;2022-09-29T17:18:07;11.40;99.90
2851;DHT22;1433;49.976;8.342;2022-09-29T17:20:40;11.30;99.90
2851;DHT22;1433;49.976;8.342;2022-09-29T17:23:06;11.30;99.90
2851;DHT22;1433;49.976;8.342;2022-09-29T17:25:35;11.20;99.90
2851;DHT22;1433;49.976;8.342;2022-09-29T17:28:02;11.20;99.90
2851;DHT22;1433;49.976;8.342;2022-09-29T17:30:38;11.10;99.90
2851;DHT22;1433;49.976;8.342;2022-09-29T17:33:06;11.00;99.90
2851;DHT22;1433;49.976;8.342;2022-09-29T17:35:40;10.80;99.90
2851;DHT22;1433;49.976;8.342;2022-09-29T17:38:11;10.60;99.90
2851;DHT22;1433;49.976;8.342;2022-09-29T17:40:59;10.50;99.90
2851;DHT22;1433;49.976;8.342;2022-09-29T17:43:34;10.40;99.90
2851;DHT22;1433;49.976;8.342;2022-09-29T17:45:59;10.30;99.90
2851;DHT22;1433;49.976;8.342;2022-09-29T17:48:28;10.20;99.90
2851;DHT22;1433;49.976;8.342;2022-09-29T17:50:55;10.20;99.90
2851;DHT22;1433;49.976;8.342;2022-09-29T17:53:24;10.20;99.90
2851;DHT22;1433;49.976;8.342;2022-09-29T17:55:53;10.20;99.90
2851;DHT22;1433;49.976;8.342;2022-09-29T17:58:22;10.20;99.90
2851;DHT22;1433;49.976;8.342;2022-09-29T18:00:51;10.20;99.90
2851;DHT22;1433;49.976;8.342;2022-09-29T18:03:20;10.30;99.90
2851;DHT22;1433;49.976;8.342;2022-09-29T18:05:49;10.30;99.90
2851;DHT22;1433;49.976;8.342;2022-09-29T18:08:19;10.20;99.90
2851;DHT22;1433;49.976;8.342;2022-09-29T18:10:53;10.20;99.90
2851;DHT22;1433;49.976;8.342;2022-09-29T18:13:26;10.10;99.90
2851;DHT22;1433;49.976;8.342;2022-09-29T18:16:00;10.10;99.90
2851;DHT22;1433;49.976;8.342;2022-09-29T18:18:27;10.10;99.90
2851;DHT22;1433;49.976;8.342;2022-09-29T18:20:54;10.10;99.90
2851;DHT22;1433;49.976;8.342;2022-09-29T18:23:21;10.20;99.90
2851;DHT22;1433;49.976;8.342;2022-09-29T18:25:51;10.20;99.90
2851;DHT22;1433;49.976;8.342;2022-09-29T18:28:18;10.30;99.90
2851;DHT22;1433;49.976;8.342;2022-09-29T18:30:50;10.30;99.90
2851;DHT22;1433;49.976;8.342;2022-09-29T18:33:20;10.30;99.90
2851;DHT22;1433;49.976;8.342;2022-09-29T18:35:52;10.30;99.90
2851;DHT22;1433;49.976;8.342;2022-09-29T18:38:19;10.30;99.90
2851;DHT22;1433;49.976;8.342;2022-09-29T18:40:45;10.50;99.90
2851;DHT22;1433;49.976;8.342;2022-09-29T18:43:13;10.50;99.90
2851;DHT22;1433;49.976;8.342;2022-09-29T18:45:40;10.60;99.90
2851;DHT22;1433;49.976;8.342;2022-09-29T18:48:10;10.60;99.90
2851;DHT22;1433;49.976;8.342;2022-09-29T18:50:45;10.60;99.90
2851;DHT22;1433;49.976;8.342;2022-09-29T18:53:18;10.70;99.90
2851;DHT22;1433;49.976;8.342;2022-09-29T18:55:45;10.70;99.90
2851;DHT22;1433;49.976;8.342;2022-09-29T18:58:13;10.80;99.90
2851;DHT22;1433;49.976;8.342;2022-09-29T19:00:45;10.80;99.90
2851;DHT22;1433;49.976;8.342;2022-09-29T19:03:19;10.80;99.90
2851;DHT22;1433;49.976;8.342;2022-09-29T19:05:46;10.80;99.90
2851;DHT22;1433;49.976;8.342;2022-09-29T19:08:14;10.80;99.90
2851;DHT22;1433;49.976;8.342;2022-09-29T19:10:46;10.70;99.90
2851;DHT22;1433;49.976;8.342;2022-09-29T19:13:15;10.80;99.90
2851;DHT22;1433;49.976;8.342;2022-09-29T19:15:43;10.80;99.90
2851;DHT22;1433;49.976;8.342;2022-09-29T19:18:17;10.80;99.90
2851;DHT22;1433;49.976;8.342;2022-09-29T19:20:49;10.80;99.90
2851;DHT22;1433;49.976;8.342;2022-09-29T19:23:16;10.80;99.90
2851;DHT22;1433;49.976;8.342;2022-09-29T19:25:46;10.80;99.90
2851;DHT22;1433;49.976;8.342;2022-09-29T19:28:14;10.80;99.90
2851;DHT22;1433;49.976;8.342;2022-09-29T19:30:42;10.70;99.90
2851;DHT22;1433;49.976;8.342;2022-09-29T19:33:13;10.60;99.90
2851;DHT22;1433;49.976;8.342;2022-09-29T19:35:46;10.60;99.90
2851;DHT22;1433;49.976;8.342;2022-09-29T19:38:16;10.60;99.90
2851;DHT22;1433;49.976;8.342;2022-09-29T19:40:44;10.50;99.90
2851;DHT22;1433;49.976;8.342;2022-09-29T19:43:11;10.30;99.90
2851;DHT22;1433;49.976;8.342;2022-09-29T19:45:39;10.20;99.90
2851;DHT22;1433;49.976;8.342;2022-09-29T19:48:13;10.20;99.90
2851;DHT22;1433;49.976;8.342;2022-09-29T19:50:41;10.20;99.90
2851;DHT22;1433;49.976;8.342;2022-09-29T19:53:27;10.20;99.90
2851;DHT22;1433;49.976;8.342;2022-09-29T19:55:53;10.20;99.90
2851;DHT22;1433;49.976;8.342;2022-09-29T19:58:20;10.20;99.90
2851;DHT22;1433;49.976;8.342;2022-09-29T20:00:47;10.10;99.90
2851;DHT22;1433;49.976;8.342;2022-09-29T20:03:13;10.10;99.90
2851;DHT22;1433;49.976;8.342;2022-09-29T20:05:40;10.00;99.90